sensor_id;sensor_type;location;lat;lon;timestamp;temperature;humidity
108;DHT22;49;48.530;9.200;2022-09-03T00:00:05;22.70;1.00
108;DHT22;49;48.530;9.200;2022-09-03T00:07:39;23.00;1.00
108;DHT22;49;48.530;9.200;2022-09-03T00:12:41;23.30;1.00
108;DHT22;49;48.530;9.200;2022-09-03T00:20:12;23.50;1.00
108;DHT22;49;48.530;9.200;2022-09-03T00:22:44;23.40;1.00
108;DHT22;49;48.530;9.200;2022-09-03T00:25:16;23.40;1.00
108;DHT22;49;48.530;9.200;2022-09-03T00:30:15;23.40;1.00
108;DHT22;49;48.530;9.200;2022-09-03T00:55:34;22.40;1.00
108;DHT22;49;48.530;9.200;2022-09-03T01:28:21;23.60;1.00
108;DHT22;49;48.530;9.200;2022-09-03T01:30:59;23.60;1.00
108;DHT22;49;48.530;9.200;2022-09-03T01:46:05;23.40;1.00
108;DHT22;49;48.530;9.200;2022-09-03T01:51:18;23.60;1.00
108;DHT22;49;48.530;9.200;2022-09-03T02:08:48;23.40;1.00
108;DHT22;49;48.530;9.200;2022-09-03T02:11:15;23.30;1.00
108;DHT22;49;48.530;9.200;2022-09-03T02:13:46;23.40;1.00
108;DHT22;49;48.530;9.200;2022-09-03T02:16:16;23.50;1.00
108;DHT22;49;48.530;9.200;2022-09-03T02:23:55;23.20;1.00
108;DHT22;49;48.530;9.200;2022-09-03T02:41:22;23.20;1.00
108;DHT22;49;48.530;9.200;2022-09-03T02:51:32;23.10;1.00
108;DHT22;49;48.530;9.200;2022-09-03T02:59:08;23.20;1.00
108;DHT22;49;48.530;9.200;2022-09-03T03:04:09;23.30;1.00
108;DHT22;49;48.530;9.200;2022-09-03T03:09:09;23.40;1.00
108;DHT22;49;48.530;9.200;2022-09-03T03:14:11;23.40;1.00
108;DHT22;49;48.530;9.200;2022-09-03T03:31:45;22.80;1.00
108;DHT22;49;48.530;9.200;2022-09-03T03:34:12;22.90;1.00
108;DHT22;49;48.530;9.200;2022-09-03T03:36:39;23.00;1.00
108;DHT22;49;48.530;9.200;2022-09-03T03:51:43;22.00;1.00
108;DHT22;49;48.530;9.200;2022-09-03T03:59:11;22.20;1.00
108;DHT22;49;48.530;9.200;2022-09-03T04:01:38;22.20;1.00
108;DHT22;49;48.530;9.200;2022-09-03T04:09:08;22.50;1.00
108;DHT22;49;48.530;9.200;2022-09-03T04:19:05;21.70;1.00
108;DHT22;49;48.530;9.200;2022-09-03T04:21:31;21.70;1.00
108;DHT22;49;48.530;9.200;2022-09-03T04:23:58;22.00;1.00
108;DHT22;49;48.530;9.200;2022-09-03T04:46:27;22.10;1.00
108;DHT22;49;48.530;9.200;2022-09-03T04:54:01;22.40;1.00
108;DHT22;49;48.530;9.200;2022-09-03T05:01:30;22.40;1.00
108;DHT22;49;48.530;9.200;2022-09-03T05:11:35;22.80;1.00
108;DHT22;49;48.530;9.200;2022-09-03T05:36:36;20.90;1.00
108;DHT22;49;48.530;9.200;2022-09-03T05:39:04;20.90;1.00
108;DHT22;49;48.530;9.200;2022-09-03T06:08:58;23.10;1.00
108;DHT22;49;48.530;9.200;2022-09-03T06:18:55;23.10;1.00
108;DHT22;49;48.530;9.200;2022-09-03T06:21:22;23.30;1.00
108;DHT22;49;48.530;9.200;2022-09-03T06:23:50;23.30;1.00
108;DHT22;49;48.530;9.200;2022-09-03T06:31:22;23.30;1.00
108;DHT22;49;48.530;9.200;2022-09-03T06:58:57;24.10;1.00
108;DHT22;49;48.530;9.200;2022-09-03T07:01:25;24.40;1.00
108;DHT22;49;48.530;9.200;2022-09-03T07:13:54;23.80;1.00
108;DHT22;49;48.530;9.200;2022-09-03T07:23:55;24.10;1.00
108;DHT22;49;48.530;9.200;2022-09-03T07:26:27;23.80;1.00
108;DHT22;49;48.530;9.200;2022-09-03T07:28:59;24.00;1.00
108;DHT22;49;48.530;9.200;2022-09-03T07:33:56;24.20;1.00
108;DHT22;49;48.530;9.200;2022-09-03T07:41:23;23.90;1.00
108;DHT22;49;48.530;9.200;2022-09-03T07:58:54;24.00;1.00
108;DHT22;49;48.530;9.200;2022-09-03T08:01:23;24.10;1.00
108;DHT22;49;48.530;9.200;2022-09-03T08:11:18;24.10;1.00
108;DHT22;49;48.530;9.200;2022-09-03T08:16:23;24.60;1.00
108;DHT22;49;48.530;9.200;2022-09-03T08:21:19;24.80;1.00
108;DHT22;49;48.530;9.200;2022-09-03T08:23:48;24.70;1.00
108;DHT22;49;48.530;9.200;2022-09-03T08:26:17;24.80;1.00
108;DHT22;49;48.530;9.200;2022-09-03T08:36:12;24.90;1.00
108;DHT22;49;48.530;9.200;2022-09-03T08:38:40;25.00;1.00
108;DHT22;49;48.530;9.200;2022-09-03T08:43:55;25.10;1.00
108;DHT22;49;48.530;9.200;2022-09-03T08:46:35;25.60;1.00
108;DHT22;49;48.530;9.200;2022-09-03T08:49:06;25.30;1.00
108;DHT22;49;48.530;9.200;2022-09-03T08:51:37;25.50;1.00
108;DHT22;49;48.530;9.200;2022-09-03T08:54:06;25.70;1.00
108;DHT22;49;48.530;9.200;2022-09-03T08:56:39;25.40;1.00
108;DHT22;49;48.530;9.200;2022-09-03T08:59:07;25.70;1.00
108;DHT22;49;48.530;9.200;2022-09-03T09:01:46;26.00;1.00
108;DHT22;49;48.530;9.200;2022-09-03T09:04:28;26.80;1.00
108;DHT22;49;48.530;9.200;2022-09-03T09:07:08;27.00;1.00
108;DHT22;49;48.530;9.200;2022-09-03T09:09:45;27.50;1.00
108;DHT22;49;48.530;9.200;2022-09-03T09:12:24;28.60;1.00
108;DHT22;49;48.530;9.200;2022-09-03T09:15:06;28.20;1.00
108;DHT22;49;48.530;9.200;2022-09-03T09:18:01;28.00;1.00
108;DHT22;49;48.530;9.200;2022-09-03T09:20:37;27.70;1.00
108;DHT22;49;48.530;9.200;2022-09-03T09:25:47;28.00;1.00
108;DHT22;49;48.530;9.200;2022-09-03T09:28:17;27.80;1.00
108;DHT22;49;48.530;9.200;2022-09-03T09:33:16;28.00;1.00
108;DHT22;49;48.530;9.200;2022-09-03T09:35:44;28.20;1.00
108;DHT22;49;48.530;9.200;2022-09-03T09:40:43;28.00;1.00
108;DHT22;49;48.530;9.200;2022-09-03T09:43:12;28.30;1.00
108;DHT22;49;48.530;9.200;2022-09-03T09:45:42;28.50;1.00
108;DHT22;49;48.530;9.200;2022-09-03T09:50:39;28.40;1.00
108;DHT22;49;48.530;9.200;2022-09-03T09:58:07;28.50;1.00
108;DHT22;49;48.530;9.200;2022-09-03T10:03:09;28.80;1.00
108;DHT22;49;48.530;9.200;2022-09-03T10:05:38;28.90;1.00
108;DHT22;49;48.530;9.200;2022-09-03T10:38:16;28.60;1.00
108;DHT22;49;48.530;9.200;2022-09-03T10:53:40;29.10;1.00
108;DHT22;49;48.530;9.200;2022-09-03T10:56:14;28.70;1.00
108;DHT22;49;48.530;9.200;2022-09-03T11:03:47;28.60;1.00
108;DHT22;49;48.530;9.200;2022-09-03T11:08:57;28.60;1.00
108;DHT22;49;48.530;9.200;2022-09-03T11:16:31;28.80;1.00
108;DHT22;49;48.530;9.200;2022-09-03T11:19:03;29.20;1.00
108;DHT22;49;48.530;9.200;2022-09-03T11:26:36;28.70;1.00
108;DHT22;49;48.530;9.200;2022-09-03T11:31:45;28.80;1.00
108;DHT22;49;48.530;9.200;2022-09-03T13:28:02;23.20;1.00
108;DHT22;49;48.530;9.200;2022-09-03T14:36:01;26.00;1.00
108;DHT22;49;48.530;9.200;2022-09-03T14:41:27;25.40;1.00
108;DHT22;49;48.530;9.200;2022-09-03T14:51:42;25.50;1.00
108;DHT22;49;48.530;9.200;2022-09-03T14:59:29;25.60;1.00
108;DHT22;49;48.530;9.200;2022-09-03T15:09:48;24.90;1.00
108;DHT22;49;48.530;9.200;2022-09-03T15:12:21;25.00;1.00
108;DHT22;49;48.530;9.200;2022-09-03T15:14:54;25.00;1.00
108;DHT22;49;48.530;9.200;2022-09-03T15:17:36;25.20;1.00
108;DHT22;49;48.530;9.200;2022-09-03T15:20:20;25.60;1.00
108;DHT22;49;48.530;9.200;2022-09-03T15:30:38;25.80;1.00
108;DHT22;49;48.530;9.200;2022-09-03T15:33:14;26.10;1.00
108;DHT22;49;48.530;9.200;2022-09-03T15:36:02;26.20;1.00
108;DHT22;49;48.530;9.200;2022-09-03T15:38:43;25.60;1.00
108;DHT22;49;48.530;9.200;2022-09-03T15:41:28;25.60;1.00
108;DHT22;49;48.530;9.200;2022-09-03T15:43:58;25.90;1.00
108;DHT22;49;48.530;9.200;2022-09-03T15:46:37;26.10;1.00
108;DHT22;49;48.530;9.200;2022-09-03T15:49:15;26.40;1.00
108;DHT22;49;48.530;9.200;2022-09-03T15:51:56;26.40;1.00
108;DHT22;49;48.530;9.200;2022-09-03T15:54:35;26.50;1.00
108;DHT22;49;48.530;9.200;2022-09-03T15:57:12;26.20;1.00
108;DHT22;49;48.530;9.200;2022-09-03T15:59:50;26.20;1.00
108;DHT22;49;48.530;9.200;2022-09-03T16:02:26;26.20;1.00
108;DHT22;49;48.530;9.200;2022-09-03T16:12:38;26.50;1.00
108;DHT22;49;48.530;9.200;2022-09-03T16:15:11;26.50;1.00
108;DHT22;49;48.530;9.200;2022-09-03T16:17:52;26.60;1.00
108;DHT22;49;48.530;9.200;2022-09-03T16:20:24;26.50;1.00
108;DHT22;49;48.530;9.200;2022-09-03T16:22:58;26.30;1.00
108;DHT22;49;48.530;9.200;2022-09-03T16:25:30;26.40;1.00
108;DHT22;49;48.530;9.200;2022-09-03T16:28:05;26.40;1.00
108;DHT22;49;48.530;9.200;2022-09-03T16:30:50;26.40;1.00
108;DHT22;49;48.530;9.200;2022-09-03T16:33:28;26.50;1.00
108;DHT22;49;48.530;9.200;2022-09-03T16:36:06;26.30;1.00
108;DHT22;49;48.530;9.200;2022-09-03T16:38:46;26.10;1.00
108;DHT22;49;48.530;9.200;2022-09-03T16:41:24;26.20;1.00
108;DHT22;49;48.530;9.200;2022-09-03T16:44:02;26.20;1.00
108;DHT22;49;48.530;9.200;2022-09-03T16:49:26;26.10;1.00
108;DHT22;49;48.530;9.200;2022-09-03T17:12:05;24.40;1.00
108;DHT22;49;48.530;9.200;2022-09-03T17:24:39;25.10;1.00
108;DHT22;49;48.530;9.200;2022-09-03T17:35:35;25.10;1.00
108;DHT22;49;48.530;9.200;2022-09-03T17:38:21;25.10;1.00
108;DHT22;49;48.530;9.200;2022-09-03T17:41:00;25.10;1.00
108;DHT22;49;48.530;9.200;2022-09-03T17:48:50;25.00;1.00
108;DHT22;49;48.530;9.200;2022-09-03T17:51:40;24.90;1.00
108;DHT22;49;48.530;9.200;2022-09-03T18:09:27;24.30;1.00
108;DHT22;49;48.530;9.200;2022-09-03T18:12:06;24.30;1.00
108;DHT22;49;48.530;9.200;2022-09-03T18:24:52;24.60;1.00
108;DHT22;49;48.530;9.200;2022-09-03T18:32:38;24.40;1.00
108;DHT22;49;48.530;9.200;2022-09-03T18:45:34;23.90;1.00
108;DHT22;49;48.530;9.200;2022-09-03T18:48:29;23.70;1.00
108;DHT22;49;48.530;9.200;2022-09-03T18:51:25;23.60;1.00
108;DHT22;49;48.530;9.200;2022-09-03T18:56:51;23.60;1.00
108;DHT22;49;48.530;9.200;2022-09-03T18:59:58;23.60;1.00
108;DHT22;49;48.530;9.200;2022-09-03T19:03:01;23.80;1.00
108;DHT22;49;48.530;9.200;2022-09-03T19:05:57;23.70;1.00
108;DHT22;49;48.530;9.200;2022-09-03T19:11:27;23.40;1.00
108;DHT22;49;48.530;9.200;2022-09-03T19:14:20;23.40;1.00
108;DHT22;49;48.530;9.200;2022-09-03T19:17:14;23.10;1.00
108;DHT22;49;48.530;9.200;2022-09-03T19:20:11;23.10;1.00
108;DHT22;49;48.530;9.200;2022-09-03T19:22:57;22.80;1.00
108;DHT22;49;48.530;9.200;2022-09-03T19:25:42;22.90;1.00
108;DHT22;49;48.530;9.200;2022-09-03T19:28:29;23.10;1.00
108;DHT22;49;48.530;9.200;2022-09-03T19:31:27;23.30;1.00
108;DHT22;49;48.530;9.200;2022-09-03T19:34:29;23.20;1.00
108;DHT22;49;48.530;9.200;2022-09-03T19:37:22;23.30;1.00
108;DHT22;49;48.530;9.200;2022-09-03T19:40:36;23.30;1.00
108;DHT22;49;48.530;9.200;2022-09-03T19:43:32;23.30;1.00
108;DHT22;49;48.530;9.200;2022-09-03T19:46:31;23.10;1.00
108;DHT22;49;48.530;9.200;2022-09-03T19:49:25;22.90;1.00
108;DHT22;49;48.530;9.200;2022-09-03T19:52:22;22.70;1.00
108;DHT22;49;48.530;9.200;2022-09-03T19:55:11;22.70;1.00
108;DHT22;49;48.530;9.200;2022-09-03T19:58:00;22.80;1.00
108;DHT22;49;48.530;9.200;2022-09-03T20:00:45;23.00;1.00
108;DHT22;49;48.530;9.200;2022-09-03T20:03:30;23.10;1.00
108;DHT22;49;48.530;9.200;2022-09-03T20:06:15;23.20;1.00
108;DHT22;49;48.530;9.200;2022-09-03T20:09:07;23.20;1.00
108;DHT22;49;48.530;9.200;2022-09-03T20:11:53;23.20;1.00
108;DHT22;49;48.530;9.200;2022-09-03T20:14:22;23.00;1.00
108;DHT22;49;48.530;9.200;2022-09-03T20:16:59;22.70;1.00
108;DHT22;49;48.530;9.200;2022-09-03T20:19:45;22.60;1.00
108;DHT22;49;48.530;9.200;2022-09-03T20:22:22;22.90;1.00
108;DHT22;49;48.530;9.200;2022-09-03T20:25:07;23.00;1.00
108;DHT22;49;48.530;9.200;2022-09-03T20:27:50;23.00;1.00
108;DHT22;49;48.530;9.200;2022-09-03T20:30:21;22.90;1.00
108;DHT22;49;48.530;9.200;2022-09-03T20:36:04;23.00;1.00
108;DHT22;49;48.530;9.200;2022-09-03T20:39:12;23.20;1.00
108;DHT22;49;48.530;9.200;2022-09-03T20:41:53;23.20;1.00
108;DHT22;49;48.530;9.200;2022-09-03T20:44:42;23.20;1.00
108;DHT22;49;48.530;9.200;2022-09-03T20:47:44;23.30;1.00
108;DHT22;49;48.530;9.200;2022-09-03T20:50:22;22.80;1.00
108;DHT22;49;48.530;9.200;2022-09-03T20:53:01;22.70;1.00
108;DHT22;49;48.530;9.200;2022-09-03T20:55:35;22.50;1.00
108;DHT22;49;48.530;9.200;2022-09-03T20:58:15;22.40;1.00
108;DHT22;49;48.530;9.200;2022-09-03T21:00:47;22.20;1.00
108;DHT22;49;48.530;9.200;2022-09-03T21:03:21;22.30;1.00
108;DHT22;49;48.530;9.200;2022-09-03T21:06:06;22.40;1.00
108;DHT22;49;48.530;9.200;2022-09-03T21:08:54;22.30;1.00
108;DHT22;49;48.530;9.200;2022-09-03T21:11:34;21.90;1.00
108;DHT22;49;48.530;9.200;2022-09-03T21:14:18;22.00;1.00
108;DHT22;49;48.530;9.200;2022-09-03T21:16:56;22.30;1.00
108;DHT22;49;48.530;9.200;2022-09-03T21:19:38;22.30;1.00
108;DHT22;49;48.530;9.200;2022-09-03T21:22:15;22.60;1.00
108;DHT22;49;48.530;9.200;2022-09-03T21:24:51;22.60;1.00
108;DHT22;49;48.530;9.200;2022-09-03T21:27:23;22.70;1.00
108;DHT22;49;48.530;9.200;2022-09-03T21:29:59;23.00;1.00
108;DHT22;49;48.530;9.200;2022-09-03T21:32:34;22.80;1.00
108;DHT22;49;48.530;9.200;2022-09-03T21:35:15;22.80;1.00
108;DHT22;49;48.530;9.200;2022-09-03T21:37:53;22.80;1.00
108;DHT22;49;48.530;9.200;2022-09-03T21:40:26;22.60;1.00
108;DHT22;49;48.530;9.200;2022-09-03T21:43:03;22.50;1.00
108;DHT22;49;48.530;9.200;2022-09-03T21:45:39;22.80;1.00
108;DHT22;49;48.530;9.200;2022-09-03T21:48:15;22.90;1.00
108;DHT22;49;48.530;9.200;2022-09-03T21:50:51;22.90;1.00
108;DHT22;49;48.530;9.200;2022-09-03T21:53:28;22.70;1.00
108;DHT22;49;48.530;9.200;2022-09-03T21:56:16;22.60;1.00
108;DHT22;49;48.530;9.200;2022-09-03T21:59:02;22.70;1.00
108;DHT22;49;48.530;9.200;2022-09-03T22:01:43;22.60;1.00
108;DHT22;49;48.530;9.200;2022-09-03T22:04:14;22.80;1.00
108;DHT22;49;48.530;9.200;2022-09-03T22:06:49;23.00;1.00
108;DHT22;49;48.530;9.200;2022-09-03T22:09:26;23.10;1.00
108;DHT22;49;48.530;9.200;2022-09-03T22:12:04;23.00;1.00
108;DHT22;49;48.530;9.200;2022-09-03T22:14:37;23.00;1.00
108;DHT22;49;48.530;9.200;2022-09-03T22:17:15;23.10;1.00
108;DHT22;49;48.530;9.200;2022-09-03T22:19:43;23.10;1.00
108;DHT22;49;48.530;9.200;2022-09-03T22:22:21;23.00;1.00
108;DHT22;49;48.530;9.200;2022-09-03T22:25:02;22.80;1.00
108;DHT22;49;48.530;9.200;2022-09-03T22:27:40;22.60;1.00
108;DHT22;49;48.530;9.200;2022-09-03T22:30:13;22.60;1.00
108;DHT22;49;48.530;9.200;2022-09-03T22:32:59;22.60;1.00
108;DHT22;49;48.530;9.200;2022-09-03T22:42:00;22.50;1.00
108;DHT22;49;48.530;9.200;2022-09-03T22:44:48;22.70;1.00
108;DHT22;49;48.530;9.200;2022-09-03T22:47:32;22.60;1.00
108;DHT22;49;48.530;9.200;2022-09-03T22:50:13;22.60;1.00
108;DHT22;49;48.530;9.200;2022-09-03T22:52:50;22.50;1.00
108;DHT22;49;48.530;9.200;2022-09-03T22:55:23;22.50;1.00
108;DHT22;49;48.530;9.200;2022-09-03T22:57:56;22.40;1.00
108;DHT22;49;48.530;9.200;2022-09-03T23:00:27;22.30;1.00
108;DHT22;49;48.530;9.200;2022-09-03T23:03:04;22.30;1.00
108;DHT22;49;48.530;9.200;2022-09-03T23:05:42;22.30;1.00
108;DHT22;49;48.530;9.200;2022-09-03T23:08:16;22.30;1.00
108;DHT22;49;48.530;9.200;2022-09-03T23:10:55;22.40;1.00
108;DHT22;49;48.530;9.200;2022-09-03T23:13:34;22.40;1.00
108;DHT22;49;48.530;9.200;2022-09-03T23:16:12;22.40;1.00
108;DHT22;49;48.530;9.200;2022-09-03T23:18:46;22.40;1.00
108;DHT22;49;48.530;9.200;2022-09-03T23:21:21;22.50;1.00
108;DHT22;49;48.530;9.200;2022-09-03T23:23:57;22.50;1.00
108;DHT22;49;48.530;9.200;2022-09-03T23:26:34;22.60;1.00
108;DHT22;49;48.530;9.200;2022-09-03T23:29:10;22.50;1.00
108;DHT22;49;48.530;9.200;2022-09-03T23:31:38;22.50;1.00
108;DHT22;49;48.530;9.200;2022-09-03T23:34:10;22.50;1.00
108;DHT22;49;48.530;9.200;2022-09-03T23:37:09;22.50;1.00
108;DHT22;49;48.530;9.200;2022-09-03T23:40:09;22.50;1.00
108;DHT22;49;48.530;9.200;2022-09-03T23:45:53;22.40;1.00
108;DHT22;49;48.530;9.200;2022-09-03T23:48:35;22.50;1.00
108;DHT22;49;48.530;9.200;2022-09-03T23:51:16;22.50;1.00
108;DHT22;49;48.530;9.200;2022-09-03T23:53:57;22.30;1.00
108;DHT22;49;48.530;9.200;2022-09-03T23:56:46;22.20;1.00
108;DHT22;49;48.530;9.200;2022-09-03T23:59:26;22.10;1.00
